Mariq — SVA2152 — position and weather

sailwx.info

Track history (hours):
 
Tides and Currents Weather Stations Pressure Air Temp Water Temp Dewpoint Dewpoint Depression Visibility Wind Speed Wind Dir Waves Ship Positions

Mariq

Last reported at 2015-Apr-21 08:20 UTC. Time now 2015-Apr-22 03:44 UTC.
Position N 36°53' E 026°10'.

Length 57 m.

Type: Tanker. MMSI: 239758424.

Date/timePositionNaut miles runAvg speedWind from/ knotsBaromVisibWave heightAir tempDewpointWater temp
2015-Apr-21 08:20N 36°53' E 026°10'810.3
2015-Apr-21 07:33N 36°57' E 026°01'6 0.4
2015-Apr-20 18:33N 36°58' E 025°54'9 9.4
2015-Apr-20 17:33N 37°05' E 025°47'1 0.2
2015-Apr-20 14:18N 37°06' E 025°48'0 0.0
2015-Apr-20 11:18N 37°06' E 025°48'1 0.5
2015-Apr-20 09:33N 37°05' E 025°47'3 2.2
2015-Apr-20 08:22N 37°07' E 025°45'7 8.9
2015-Apr-20 07:33N 37°12' E 025°39'8 8.4
2015-Apr-20 06:34N 37°16' E 025°30'9 8.6
2015-Apr-20 05:32N 37°18' E 025°19'8 8.7
2015-Apr-20 04:33N 37°19' E 025°08'9 8.8
2015-Apr-20 03:33N 37°20' E 024°57'9 9.1
2015-Apr-20 02:31N 37°22' E 024°46'2 0.1
2015-Apr-19 08:12N 37°24' E 024°44'7 9.9
2015-Apr-19 07:29N 37°21' E 024°52'9 9.5
2015-Apr-19 06:33N 37°19' E 025°03'10 9.6
2015-Apr-19 05:33N 37°17' E 025°15'10 9.8
2015-Apr-19 04:33N 37°15' E 025°27'9 9.3
2015-Apr-19 03:33N 37°10' E 025°37'1010.1
2015-Apr-19 02:32N 37°01' E 025°43'1010.3
2015-Apr-19 01:33N 36°52' E 025°49'2 0.1
2015-Apr-18 03:19N 36°50' E 025°51'6 6.6
2015-Apr-18 02:28N 36°50' E 025°44'47 9.0
2015-Apr-17 21:13N 36°59' E 024°46'33 0.7
2015-Apr-15 19:23N 36°33' E 025°10'16 8.9
2015-Apr-15 17:33N 36°29' E 025°30'9 9.0
2015-Apr-15 16:33N 36°27' E 025°41'9 8.5
2015-Apr-15 15:33N 36°24' E 025°51'9 9.0
2015-Apr-15 14:33N 36°22' E 026°02'57 8.9
2015-Apr-15 08:08N 36°03' E 027°09'6 9.6
2015-Apr-15 07:33N 36°01' E 027°15'  
2015-Apr-12 23:31N 36°42' E 027°21'27 9.0
2015-Apr-12 20:32N 37°05' E 027°02'1110.5
2015-Apr-12 19:28N 37°12' E 026°52'1110.4
2015-Apr-12 18:27N 37°17' E 026°40'37 1.2
2015-Apr-11 12:32N 37°21' E 025°55'8 7.9
2015-Apr-11 11:31N 37°24' E 025°45'7 7.1
2015-Apr-11 10:31N 37°24' E 025°36'7 7.5
2015-Apr-11 09:33N 37°22' E 025°27'8 8.2
2015-Apr-11 08:34N 37°21' E 025°17'  
Track history (hours):
 
Tides and Currents Weather Stations Pressure Air Temp Water Temp Dewpoint Dewpoint Depression Visibility Wind Speed Wind Dir Waves Ship Positions

Mariq

Last reported at 2015-Apr-21 08:20 UTC. Time now 2015-Apr-22 03:44 UTC.
Position N 36°53' E 026°10'.

Length 57 m.

Type: Tanker. MMSI: 239758424.

Date/timePositionNaut miles runAvg speedWind from/ knotsBaromVisibWave heightAir tempDewpointWater temp
2015-Apr-21 08:20N 36°53' E 026°10'810.3
2015-Apr-21 07:33N 36°57' E 026°01'6 0.4
2015-Apr-20 18:33N 36°58' E 025°54'9 9.4
2015-Apr-20 17:33N 37°05' E 025°47'1 0.2
2015-Apr-20 14:18N 37°06' E 025°48'0 0.0
2015-Apr-20 11:18N 37°06' E 025°48'1 0.5
2015-Apr-20 09:33N 37°05' E 025°47'3 2.2
2015-Apr-20 08:22N 37°07' E 025°45'7 8.9
2015-Apr-20 07:33N 37°12' E 025°39'8 8.4
2015-Apr-20 06:34N 37°16' E 025°30'9 8.6
2015-Apr-20 05:32N 37°18' E 025°19'8 8.7
2015-Apr-20 04:33N 37°19' E 025°08'9 8.8
2015-Apr-20 03:33N 37°20' E 024°57'9 9.1
2015-Apr-20 02:31N 37°22' E 024°46'2 0.1
2015-Apr-19 08:12N 37°24' E 024°44'7 9.9
2015-Apr-19 07:29N 37°21' E 024°52'9 9.5
2015-Apr-19 06:33N 37°19' E 025°03'10 9.6
2015-Apr-19 05:33N 37°17' E 025°15'10 9.8
2015-Apr-19 04:33N 37°15' E 025°27'9 9.3
2015-Apr-19 03:33N 37°10' E 025°37'1010.1
2015-Apr-19 02:32N 37°01' E 025°43'1010.3
2015-Apr-19 01:33N 36°52' E 025°49'2 0.1
2015-Apr-18 03:19N 36°50' E 025°51'6 6.6
2015-Apr-18 02:28N 36°50' E 025°44'47 9.0
2015-Apr-17 21:13N 36°59' E 024°46'33 0.7
2015-Apr-15 19:23N 36°33' E 025°10'16 8.9
2015-Apr-15 17:33N 36°29' E 025°30'9 9.0
2015-Apr-15 16:33N 36°27' E 025°41'9 8.5
2015-Apr-15 15:33N 36°24' E 025°51'9 9.0
2015-Apr-15 14:33N 36°22' E 026°02'57 8.9
2015-Apr-15 08:08N 36°03' E 027°09'6 9.6
2015-Apr-15 07:33N 36°01' E 027°15'  
2015-Apr-12 23:31N 36°42' E 027°21'27 9.0
2015-Apr-12 20:32N 37°05' E 027°02'1110.5
2015-Apr-12 19:28N 37°12' E 026°52'1110.4
2015-Apr-12 18:27N 37°17' E 026°40'37 1.2
2015-Apr-11 12:32N 37°21' E 025°55'8 7.9
2015-Apr-11 11:31N 37°24' E 025°45'7 7.1
2015-Apr-11 10:31N 37°24' E 025°36'7 7.5
2015-Apr-11 09:33N 37°22' E 025°27'8 8.2
2015-Apr-11 08:34N 37°21' E 025°17'  

Dump ship's entire track history